Time;durP1;ratioP1;P1;durP2;ratioP2;P2;SDS_P1;SDS_P2;PMS_P1;PMS_P2;Temp;Humidity;BMP_temperature;BMP_pressure;BME280_temperature;BME280_humidity;BME280_pressure;Samples;Min_cycle;Max_cycle;Signal;HPM_P1;HPM_P2
2023/10/15 00:00:07;;;;;;;3.13;0.70;;;8.40;99.90;;;;;;6272598;22;20333;-77
2023/10/15 00:02:33;;;;;;;4.80;1.00;;;8.40;99.90;;;;;;6246889;22;20082;-76
2023/10/15 00:05:01;;;;;;;2.77;0.90;;;8.40;99.90;;;;;;6246218;22;20034;-77
2023/10/15 00:07:26;;;;;;;4.73;0.73;;;8.50;99.90;;;;;;6246803;22;20003;-77
2023/10/15 00:09:52;;;;;;;3.50;0.60;;;8.50;99.90;;;;;;6246468;22;20376;-76
2023/10/15 00:12:17;;;;;;;2.53;0.70;;;8.50;99.90;;;;;;6246581;22;20008;-76
2023/10/15 00:14:43;;;;;;;1.40;0.50;;;8.60;99.90;;;;;;6273216;22;20126;-76
2023/10/15 00:17:09;;;;;;;4.27;1.37;;;8.50;99.90;;;;;;6273261;22;20067;-76
2023/10/15 00:19:35;;;;;;;3.13;0.63;;;8.60;99.90;;;;;;6273691;22;20444;-76
2023/10/15 00:22:02;;;;;;;4.40;0.83;;;8.60;99.90;;;;;;6273284;22;19996;-76
2023/10/15 00:24:28;;;;;;;2.63;0.87;;;8.60;99.90;;;;;;6246338;22;20035;-76
2023/10/15 00:26:53;;;;;;;1.40;0.40;;;8.60;99.90;;;;;;6246215;22;20003;-76
2023/10/15 00:29:19;;;;;;;2.27;0.60;;;8.60;99.90;;;;;;6245503;22;20004;-76
2023/10/15 00:31:47;;;;;;;1.17;0.40;;;8.70;99.90;;;;;;6273747;22;20000;-76
2023/10/15 00:34:13;;;;;;;2.03;0.52;;;8.70;99.90;;;;;;6272842;22;20028;-76
2023/10/15 00:36:39;;;;;;;3.97;0.70;;;8.70;99.90;;;;;;6246600;22;20428;-76
2023/10/15 00:39:12;;;;;;;3.73;0.50;;;8.70;99.90;;;;;;6272750;22;20016;-75
2023/10/15 00:41:37;;;;;;;2.67;0.50;;;8.70;99.90;;;;;;6246594;22;20004;-76
2023/10/15 00:44:09;;;;;;;4.40;1.77;;;8.60;99.90;;;;;;6244957;22;19992;-75
2023/10/15 00:46:37;;;;;;;3.83;0.50;;;8.60;99.90;;;;;;6273255;22;20004;-76
2023/10/15 00:49:25;;;;;;;2.33;0.50;;;8.60;99.90;;;;;;6245683;22;20010;-76
2023/10/15 00:51:52;;;;;;;3.73;0.97;;;8.60;99.90;;;;;;6273477;22;19999;-77
2023/10/15 00:54:18;;;;;;;4.63;0.60;;;8.50;99.90;;;;;;6273162;22;20428;-76
2023/10/15 00:56:47;;;;;;;3.60;0.87;;;8.50;99.90;;;;;;6273417;22;20003;-76
2023/10/15 00:59:18;;;;;;;3.50;0.53;;;8.50;99.90;;;;;;6272280;22;20344;-76
2023/10/15 01:04:35;;;;;;;;;;;8.50;99.90;;;;;;6274059;22;20015;-77
2023/10/15 01:07:20;;;;;;;2.97;0.60;;;8.50;99.90;;;;;;6272836;22;19907;-77
2023/10/15 01:09:46;;;;;;;2.07;0.60;;;8.60;99.90;;;;;;6273211;22;20325;-76
2023/10/15 01:12:30;;;;;;;2.87;0.90;;;8.60;99.90;;;;;;6272282;22;19996;-77
2023/10/15 01:14:56;;;;;;;2.67;0.50;;;8.70;99.90;;;;;;6272501;22;20373;-77
2023/10/15 01:17:26;;;;;;;3.27;0.50;;;8.70;99.90;;;;;;6272872;22;20003;-77
2023/10/15 01:19:52;;;;;;;6.53;0.80;;;8.70;99.90;;;;;;6273132;22;19996;-77
2023/10/15 01:22:18;;;;;;;2.23;0.50;;;8.70;99.90;;;;;;6272599;22;20007;-78
2023/10/15 01:24:45;;;;;;;3.33;0.50;;;8.70;99.90;;;;;;6245780;22;20031;-77
2023/10/15 01:27:11;;;;;;;2.73;0.30;;;8.70;99.90;;;;;;6272642;22;20003;-78
2023/10/15 01:29:42;;;;;;;3.57;0.87;;;8.70;99.90;;;;;;6272971;22;20325;-77
2023/10/15 01:32:13;;;;;;;3.20;1.10;;;8.70;99.90;;;;;;6272515;22;19999;-78
2023/10/15 01:34:46;;;;;;;2.10;0.60;;;8.60;99.90;;;;;;6272957;22;20000;-78
2023/10/15 01:37:15;;;;;;;2.73;0.60;;;8.70;99.90;;;;;;6272117;22;19996;-77
2023/10/15 01:39:48;;;;;;;2.13;0.40;;;8.60;99.90;;;;;;6272824;22;20018;-78
2023/10/15 01:42:32;;;;;;;2.80;0.63;;;8.60;99.90;;;;;;6271838;22;20007;-78
2023/10/15 01:45:31;;;;;;;1.10;0.40;;;8.70;99.90;;;;;;6272562;22;20000;-77
2023/10/15 01:50:31;;;;;;;2.10;0.40;;;8.70;99.90;;;;;;6282815;22;20007;-77
2023/10/15 01:53:01;;;;;;;4.83;0.67;;;8.70;99.90;;;;;;6273059;22;20456;-78
2023/10/15 01:55:29;;;;;;;2.83;0.70;;;8.70;99.90;;;;;;6272727;22;20019;-78
2023/10/15 01:57:58;;;;;;;2.73;0.50;;;8.60;99.90;;;;;;6272706;22;20004;-77
2023/10/15 02:00:33;;;;;;;5.03;0.90;;;8.70;99.90;;;;;;6272231;22;20007;-77
2023/10/15 02:02:59;;;;;;;2.33;0.60;;;8.70;99.90;;;;;;6272818;22;20065;-77
2023/10/15 02:05:30;;;;;;;2.83;1.30;;;8.70;99.90;;;;;;6272494;22;20555;-77
2023/10/15 02:07:56;;;;;;;3.17;0.73;;;8.80;99.90;;;;;;6272727;22;20444;-77
2023/10/15 02:10:29;;;;;;;3.20;0.73;;;8.80;99.90;;;;;;6271689;22;19999;-77
2023/10/15 02:13:04;;;;;;;3.33;0.83;;;8.80;99.90;;;;;;6273026;22;20042;-77
2023/10/15 02:15:39;;;;;;;6.00;0.93;;;8.80;99.90;;;;;;6272435;22;20010;-77
2023/10/15 02:18:14;;;;;;;3.10;0.70;;;8.80;99.90;;;;;;6272314;22;20464;-78
2023/10/15 02:23:15;;;;;;;3.50;0.47;;;8.90;99.90;;;;;;6272200;22;20035;-77
2023/10/15 02:25:46;;;;;;;4.60;1.03;;;8.90;99.90;;;;;;6271968;22;20306;-77
2023/10/15 02:28:16;;;;;;;1.27;0.57;;;8.80;99.90;;;;;;6244869;22;20448;-78
2023/10/15 02:30:46;;;;;;;3.87;0.60;;;8.90;99.90;;;;;;6272414;22;19992;-77
2023/10/15 02:33:16;;;;;;;1.87;0.87;;;8.90;99.90;;;;;;6271863;22;20003;-77
2023/10/15 02:35:46;;;;;;;3.23;0.40;;;8.90;99.90;;;;;;6244811;22;20408;-77
2023/10/15 02:38:12;;;;;;;3.10;0.50;;;8.90;99.90;;;;;;6269315;22;20047;-77
2023/10/15 02:43:29;;;;;;;2.08;0.32;;;8.90;99.90;;;;;;6269729;22;20014;-78
2023/10/15 02:46:18;;;;;;;1.50;0.40;;;8.90;99.90;;;;;;6270243;22;20031;-78
2023/10/15 02:48:41;;;;;;;3.30;0.50;;;8.90;99.90;;;;;;6269031;22;19995;-79
2023/10/15 02:51:08;;;;;;;1.30;0.30;;;8.90;99.90;;;;;;6270288;22;19996;-78
2023/10/15 02:53:39;;;;;;;1.20;0.13;;;8.90;99.90;;;;;;6271099;22;20000;-78
2023/10/15 02:56:11;;;;;;;2.10;0.40;;;8.80;99.90;;;;;;6272223;22;20441;-79
2023/10/15 02:58:38;;;;;;;2.13;0.30;;;8.80;99.90;;;;;;6244849;22;20429;-79
2023/10/15 03:01:12;;;;;;;2.10;0.40;;;8.80;99.90;;;;;;6271848;22;20000;-79
2023/10/15 03:03:39;;;;;;;2.53;0.37;;;8.80;99.90;;;;;;6271946;22;20200;-78
2023/10/15 03:06:09;;;;;;;1.10;0.50;;;8.70;99.90;;;;;;6244768;22;20043;-78
2023/10/15 03:08:36;;;;;;;1.37;0.30;;;8.70;99.90;;;;;;6271420;22;20000;-79
2023/10/15 03:11:12;;;;;;;0.70;0.30;;;8.70;99.90;;;;;;6271752;22;20329;-78
2023/10/15 03:13:49;;;;;;;1.30;0.40;;;8.60;99.90;;;;;;6245164;22;20000;-79
2023/10/15 03:16:33;;;;;;;1.23;0.40;;;8.60;99.90;;;;;;6244462;22;20138;-79
2023/10/15 03:19:09;;;;;;;2.00;0.40;;;8.60;99.90;;;;;;6272330;22;20047;-79
2023/10/15 03:21:39;;;;;;;1.38;0.32;;;8.60;99.90;;;;;;6272251;22;20329;-79
2023/10/15 03:24:05;;;;;;;3.83;0.70;;;8.60;99.90;;;;;;6244021;22;20095;-79
2023/10/15 03:26:34;;;;;;;0.70;0.30;;;8.60;99.90;;;;;;6244995;22;20004;-79
2023/10/15 03:29:13;;;;;;;2.67;0.97;;;8.60;99.90;;;;;;6271809;22;20019;-79
2023/10/15 03:31:44;;;;;;;3.67;0.50;;;8.60;99.90;;;;;;6271957;22;20010;-79
2023/10/15 03:36:50;;;;;;;1.77;0.60;;;8.60;99.90;;;;;;6272339;22;20345;-79
2023/10/15 03:39:24;;;;;;;2.30;0.43;;;8.60;99.90;;;;;;6243889;22;20441;-79
2023/10/15 03:41:52;;;;;;;1.88;0.40;;;8.60;99.90;;;;;;6272274;22;20003;-80
2023/10/15 03:44:27;;;;;;;1.43;0.50;;;8.60;99.90;;;;;;6271297;22;20071;-79
2023/10/15 03:46:54;;;;;;;2.40;0.60;;;8.60;99.90;;;;;;6271941;22;20437;-78
2023/10/15 03:49:27;;;;;;;2.87;0.77;;;8.60;99.90;;;;;;6244357;22;19996;-79
2023/10/15 03:51:53;;;;;;;5.13;0.60;;;8.60;99.90;;;;;;6244259;22;20004;-79
2023/10/15 03:54:22;;;;;;;2.27;0.57;;;8.60;99.90;;;;;;6271216;22;20023;-79
2023/10/15 03:56:52;;;;;;;2.23;0.63;;;8.60;99.90;;;;;;6244754;22;20008;-79
2023/10/15 03:59:21;;;;;;;2.93;1.10;;;8.70;99.90;;;;;;6271248;22;20006;-79
2023/10/15 04:01:49;;;;;;;2.20;0.70;;;8.70;99.90;;;;;;6244685;22;20014;-78
2023/10/15 04:04:18;;;;;;;1.33;0.60;;;8.70;99.90;;;;;;6271401;22;20030;-78
2023/10/15 04:07:10;;;;;;;2.40;0.60;;;8.70;99.90;;;;;;6271156;22;20004;-79
2023/10/15 04:09:35;;;;;;;3.60;0.87;;;8.80;99.90;;;;;;6244445;22;20086;-77
2023/10/15 04:12:06;;;;;;;2.50;0.70;;;8.80;99.90;;;;;;6272308;22;20038;-77
2023/10/15 04:14:32;;;;;;;2.13;0.80;;;8.80;99.90;;;;;;6244534;22;20023;-77
2023/10/15 04:16:58;;;;;;;2.90;0.60;;;8.80;99.90;;;;;;6244748;22;20061;-77
2023/10/15 04:19:29;;;;;;;2.07;0.50;;;8.70;99.90;;;;;;6244641;22;20038;-78
2023/10/15 04:22:14;;;;;;;1.33;0.40;;;8.60;99.90;;;;;;6246129;22;20049;-79
2023/10/15 04:24:42;;;;;;;1.10;0.40;;;8.60;99.90;;;;;;6246223;22;20674;-79
2023/10/15 04:27:15;;;;;;;0.67;0.37;;;8.50;99.90;;;;;;6246083;22;20498;-79
2023/10/15 04:29:52;;;;;;;2.47;0.30;;;8.50;99.90;;;;;;6273355;22;20074;-79
2023/10/15 04:32:28;;;;;;;0.73;0.30;;;8.50;99.90;;;;;;6273092;22;20030;-78
2023/10/15 04:35:08;;;;;;;2.00;0.40;;;8.50;99.90;;;;;;6273512;22;19996;-79
2023/10/15 04:37:35;;;;;;;1.00;0.30;;;8.50;99.90;;;;;;6273307;22;19996;-78
2023/10/15 04:40:04;;;;;;;0.80;0.40;;;8.50;99.90;;;;;;6246663;22;20015;-79
2023/10/15 04:42:36;;;;;;;2.70;0.30;;;8.50;99.90;;;;;;6246377;22;20011;-79
2023/10/15 04:45:03;;;;;;;1.13;0.30;;;8.50;99.90;;;;;;6245957;22;20011;-80
2023/10/15 04:47:38;;;;;;;3.30;0.40;;;8.50;99.90;;;;;;6245938;22;20018;-79
2023/10/15 04:50:14;;;;;;;2.60;0.47;;;8.50;99.90;;;;;;6245625;22;19999;-78
2023/10/15 04:52:41;;;;;;;1.00;0.40;;;8.50;99.90;;;;;;6270777;22;19996;-78
2023/10/15 04:55:08;;;;;;;0.60;0.20;;;8.50;99.90;;;;;;6243924;22;20011;-79
2023/10/15 04:57:33;;;;;;;4.10;0.40;;;8.40;99.90;;;;;;6245096;22;20681;-78
2023/10/15 04:59:59;;;;;;;3.10;1.23;;;8.40;99.90;;;;;;6244932;22;20086;-79
2023/10/15 05:02:25;;;;;;;0.70;0.30;;;8.40;99.90;;;;;;6272977;22;20000;-78
2023/10/15 05:04:50;;;;;;;3.20;0.50;;;8.40;99.90;;;;;;6272771;22;20309;-79
2023/10/15 05:07:16;;;;;;;1.63;0.40;;;8.40;99.90;;;;;;6272688;22;20023;-78
2023/10/15 05:09:44;;;;;;;0.97;0.40;;;8.30;99.90;;;;;;6273342;22;20026;-79
2023/10/15 05:12:12;;;;;;;3.27;0.50;;;8.30;99.90;;;;;;6273109;22;20418;-79
2023/10/15 05:14:38;;;;;;;0.60;0.30;;;8.20;99.90;;;;;;6246041;22;20038;-79
2023/10/15 05:17:04;;;;;;;2.33;0.30;;;8.20;99.90;;;;;;6245709;22;20008;-78
2023/10/15 05:19:29;;;;;;;2.00;0.70;;;8.10;99.90;;;;;;6272281;22;20546;-78
2023/10/15 05:21:56;;;;;;;1.43;0.30;;;8.10;99.90;;;;;;6273395;22;20000;-79
2023/10/15 05:24:21;;;;;;;3.80;0.30;;;8.00;99.90;;;;;;6245380;22;20386;-78
2023/10/15 05:26:47;;;;;;;2.13;0.30;;;8.00;99.90;;;;;;6273247;22;20422;-79
2023/10/15 05:29:15;;;;;;;1.10;0.30;;;8.00;99.90;;;;;;6272887;22;20050;-79
2023/10/15 05:31:41;;;;;;;3.43;0.50;;;8.00;99.90;;;;;;6272709;22;20034;-78
2023/10/15 05:34:07;;;;;;;3.27;0.40;;;7.90;99.90;;;;;;6272069;22;19996;-79
2023/10/15 05:36:35;;;;;;;1.73;0.30;;;7.90;99.90;;;;;;6245607;22;20000;-79
2023/10/15 05:39:02;;;;;;;1.37;0.40;;;7.90;99.90;;;;;;6272672;22;20445;-79
2023/10/15 05:41:31;;;;;;;3.87;0.80;;;7.80;99.90;;;;;;6245917;22;20004;-79
2023/10/15 05:43:57;;;;;;;1.03;0.27;;;7.80;99.90;;;;;;6246184;22;20129;-79
2023/10/15 05:46:22;;;;;;;1.27;0.43;;;7.70;99.90;;;;;;6272791;22;20387;-80
2023/10/15 05:48:48;;;;;;;1.40;0.40;;;7.70;99.90;;;;;;6245570;22;20031;-79
2023/10/15 05:51:13;;;;;;;1.97;0.40;;;7.70;99.90;;;;;;6245858;22;20022;-79
2023/10/15 05:53:39;;;;;;;2.00;0.40;;;7.70;99.90;;;;;;6272470;22;20000;-79
2023/10/15 05:56:05;;;;;;;2.53;0.53;;;7.70;99.90;;;;;;6245710;22;20058;-79
2023/10/15 05:58:31;;;;;;;1.20;0.47;;;7.70;99.90;;;;;;6245439;22;20003;-79
2023/10/15 06:00:57;;;;;;;1.23;0.50;;;7.70;99.90;;;;;;6245898;22;20003;-79
2023/10/15 06:03:23;;;;;;;3.27;0.70;;;7.80;99.90;;;;;;6271730;22;20439;-79
2023/10/15 06:05:49;;;;;;;1.80;0.50;;;7.80;99.90;;;;;;6245886;22;20014;-79
2023/10/15 06:08:15;;;;;;;1.63;0.53;;;7.80;99.90;;;;;;6245242;22;20330;-79
2023/10/15 06:10:40;;;;;;;1.53;0.40;;;7.80;99.90;;;;;;6272676;22;20027;-80
2023/10/15 06:13:06;;;;;;;3.77;0.40;;;7.80;99.90;;;;;;6272620;22;20008;-79
2023/10/15 06:15:31;;;;;;;2.03;0.30;;;7.90;99.90;;;;;;6245388;22;20007;-80
2023/10/15 06:17:58;;;;;;;1.93;0.67;;;7.90;99.90;;;;;;6271998;22;20004;-79
2023/10/15 06:20:25;;;;;;;1.00;0.30;;;7.90;99.90;;;;;;6244987;22;20008;-79
2023/10/15 06:22:55;;;;;;;2.20;0.77;;;7.90;99.90;;;;;;6272222;22;20007;-79
2023/10/15 06:25:21;;;;;;;4.43;1.30;;;7.80;99.90;;;;;;6245245;22;20049;-79
2023/10/15 06:27:47;;;;;;;6.07;1.23;;;7.80;99.90;;;;;;6245440;22;20012;-79
2023/10/15 06:30:16;;;;;;;1.90;1.30;;;7.80;99.90;;;;;;6272328;22;20031;-79
2023/10/15 06:32:43;;;;;;;5.60;0.90;;;7.80;99.90;;;;;;6272037;22;19996;-79
2023/10/15 06:35:09;;;;;;;4.17;0.80;;;7.80;99.90;;;;;;6272208;22;20061;-79
2023/10/15 06:37:38;;;;;;;0.90;0.40;;;7.70;99.90;;;;;;6272211;22;20003;-78
2023/10/15 06:40:08;;;;;;;1.57;0.50;;;7.70;99.90;;;;;;6272623;22;20003;-80
2023/10/15 06:42:35;;;;;;;2.43;0.30;;;7.80;99.90;;;;;;6244961;22;20006;-80
2023/10/15 06:45:02;;;;;;;2.60;0.40;;;7.80;99.90;;;;;;6272214;22;20026;-79
2023/10/15 06:47:29;;;;;;;3.30;0.30;;;7.90;99.90;;;;;;6244909;22;20008;-78
2023/10/15 06:49:55;;;;;;;1.50;0.40;;;7.90;99.90;;;;;;6272280;22;20070;-79
2023/10/15 06:52:20;;;;;;;2.30;0.70;;;8.00;99.90;;;;;;6272080;22;20346;-78
2023/10/15 06:54:46;;;;;;;2.70;1.13;;;8.00;99.90;;;;;;6245113;22;20424;-78
2023/10/15 06:57:16;;;;;;;3.33;0.70;;;8.10;99.90;;;;;;6272309;22;20010;-71
2023/10/15 06:59:44;;;;;;;3.83;0.50;;;8.20;99.90;;;;;;6272396;22;20000;-71
2023/10/15 07:02:13;;;;;;;2.37;0.80;;;8.30;99.90;;;;;;6271698;22;20125;-71
2023/10/15 07:04:39;;;;;;;3.33;1.33;;;8.30;99.90;;;;;;6272146;22;20056;-71
2023/10/15 07:07:04;;;;;;;3.63;0.70;;;8.40;99.90;;;;;;6272089;22;20007;-72
2023/10/15 07:09:32;;;;;;;4.37;0.90;;;8.40;99.90;;;;;;6271900;22;20330;-72
2023/10/15 07:11:59;;;;;;;2.07;0.70;;;8.50;99.90;;;;;;6272486;22;20493;-72
2023/10/15 07:14:24;;;;;;;1.83;0.70;;;8.50;99.90;;;;;;6271052;22;20000;-71
2023/10/15 07:16:50;;;;;;;3.30;0.90;;;8.50;99.90;;;;;;6272375;22;20014;-72
2023/10/15 07:19:16;;;;;;;2.73;0.73;;;8.50;99.90;;;;;;6271616;22;20071;-72
2023/10/15 07:21:42;;;;;;;2.20;0.73;;;8.50;99.90;;;;;;6272350;22;20081;-72
2023/10/15 07:24:11;;;;;;;5.10;0.90;;;8.60;99.90;;;;;;6271793;22;20042;-72
2023/10/15 07:26:39;;;;;;;4.43;0.80;;;8.60;99.90;;;;;;6272067;22;20000;-71
2023/10/15 07:29:05;;;;;;;3.13;0.70;;;8.80;99.90;;;;;;6271703;22;19995;-71
2023/10/15 07:31:30;;;;;;;5.37;0.80;;;8.80;99.90;;;;;;6271825;22;20002;-71
2023/10/15 07:33:56;;;;;;;2.43;1.27;;;8.90;99.90;;;;;;6271987;22;20004;-71
2023/10/15 07:36:22;;;;;;;1.83;0.63;;;8.90;99.90;;;;;;6271749;22;20035;-72
2023/10/15 07:38:47;;;;;;;6.07;1.00;;;8.90;99.90;;;;;;6271598;22;20146;-71
2023/10/15 07:41:13;;;;;;;7.40;1.93;;;9.00;99.90;;;;;;6271844;22;20054;-71
2023/10/15 07:43:38;;;;;;;2.43;1.10;;;9.00;99.90;;;;;;6271407;22;20011;-71
2023/10/15 07:46:04;;;;;;;4.20;0.97;;;9.00;99.90;;;;;;6271856;22;20027;-72
2023/10/15 07:48:29;;;;;;;7.00;0.93;;;9.00;99.90;;;;;;6272025;22;20000;-71
2023/10/15 07:50:55;;;;;;;4.40;0.90;;;9.10;99.90;;;;;;6271894;22;20003;-71
2023/10/15 07:53:21;;;;;;;4.23;0.83;;;9.00;99.90;;;;;;6271376;22;20452;-71
2023/10/15 07:55:46;;;;;;;2.47;0.90;;;9.00;99.90;;;;;;6273794;22;20008;-71
2023/10/15 07:58:12;;;;;;;2.97;0.80;;;9.00;99.90;;;;;;6272907;22;20439;-71
2023/10/15 08:00:38;;;;;;;4.47;1.40;;;8.90;99.90;;;;;;6273429;22;20413;-71
2023/10/15 08:03:07;;;;;;;3.17;0.70;;;8.90;99.90;;;;;;6273488;22;20128;-71
2023/10/15 08:05:33;;;;;;;5.33;0.90;;;8.90;99.90;;;;;;6273342;22;20004;-71
2023/10/15 08:07:59;;;;;;;2.03;0.80;;;8.90;99.90;;;;;;6273350;22;20061;-71
2023/10/15 08:10:31;;;;;;;3.07;0.67;;;9.00;99.90;;;;;;6272919;22;20008;-72
2023/10/15 08:12:58;;;;;;;2.53;0.80;;;9.00;99.90;;;;;;6246080;22;20031;-72
2023/10/15 08:15:24;;;;;;;3.30;0.90;;;9.10;99.90;;;;;;6273497;22;20081;-72
2023/10/15 08:17:50;;;;;;;4.80;0.70;;;9.10;99.90;;;;;;6273702;22;20036;-72
2023/10/15 08:20:16;;;;;;;4.67;0.90;;;9.20;99.90;;;;;;6273675;22;20006;-72
2023/10/15 08:22:44;;;;;;;4.72;1.27;;;9.20;99.90;;;;;;6273594;22;20007;-71
2023/10/15 08:25:13;;;;;;;2.53;0.60;;;9.30;99.90;;;;;;6272909;22;20655;-71
2023/10/15 08:27:45;;;;;;;1.33;0.70;;;9.30;99.90;;;;;;6272892;22;20010;-71
2023/10/15 08:30:12;;;;;;;2.73;0.90;;;9.30;99.90;;;;;;6273212;22;20085;-71
2023/10/15 08:32:45;;;;;;;4.60;0.67;;;9.30;99.90;;;;;;6246775;22;19999;-71
2023/10/15 08:35:16;;;;;;;2.92;0.65;;;9.30;99.90;;;;;;6273457;22;20413;-71
2023/10/15 08:37:43;;;;;;;1.87;0.80;;;9.20;99.90;;;;;;6273218;22;20003;-71
2023/10/15 08:40:15;;;;;;;2.87;0.70;;;9.20;99.90;;;;;;6273273;22;20004;-71
2023/10/15 08:43:14;;;;;;;3.70;0.60;;;9.20;99.90;;;;;;6273006;22;20003;-72
2023/10/15 08:45:43;;;;;;;7.97;2.00;;;9.10;99.90;;;;;;6260068;22;20091;-71
2023/10/15 08:48:11;;;;;;;5.70;0.93;;;9.00;99.90;;;;;;6273384;22;20000;-71
2023/10/15 08:50:37;;;;;;;3.03;0.93;;;9.00;99.90;;;;;;6273501;22;19999;-72
2023/10/15 08:53:04;;;;;;;2.70;0.77;;;9.00;99.90;;;;;;6273278;22;20370;-71
2023/10/15 08:55:33;;;;;;;3.73;0.60;;;9.10;99.90;;;;;;6273307;22;20007;-72
2023/10/15 08:57:59;;;;;;;1.13;0.20;;;9.20;99.90;;;;;;6273093;22;20018;-72
2023/10/15 09:00:25;;;;;;;1.87;0.40;;;9.30;99.90;;;;;;6272637;22;20090;-71
2023/10/15 09:02:56;;;;;;;3.43;0.83;;;9.30;99.90;;;;;;6272304;22;20082;-71
2023/10/15 09:05:22;;;;;;;1.87;0.80;;;9.30;99.90;;;;;;6272400;22;20012;-72
2023/10/15 09:07:51;;;;;;;1.57;0.40;;;9.30;99.90;;;;;;6272722;22;20052;-71
2023/10/15 09:10:17;;;;;;;1.95;0.40;;;9.20;99.90;;;;;;6272648;22;20083;-72
2023/10/15 09:12:43;;;;;;;3.33;0.50;;;9.20;99.90;;;;;;6272538;22;20004;-71
2023/10/15 09:15:15;;;;;;;2.67;0.60;;;9.20;99.90;;;;;;6273027;22;20007;-71
2023/10/15 09:18:02;;;;;;;0.47;0.30;;;9.20;99.90;;;;;;6273211;22;19996;-71
2023/10/15 09:20:28;;;;;;;3.77;0.50;;;9.20;99.90;;;;;;6245271;22;20003;-71
2023/10/15 09:22:58;;;;;;;1.67;0.40;;;9.40;99.90;;;;;;6273067;22;20004;-71
2023/10/15 09:25:27;;;;;;;1.53;0.37;;;9.50;99.90;;;;;;6272108;22;20008;-71
2023/10/15 09:27:54;;;;;;;1.10;0.27;;;9.60;99.90;;;;;;6273361;22;19999;-72
2023/10/15 09:30:24;;;;;;;1.23;0.40;;;9.80;99.90;;;;;;6272555;22;20000;-71
2023/10/15 09:32:50;;;;;;;1.70;0.50;;;9.90;99.90;;;;;;6272875;22;20000;-71
2023/10/15 09:35:16;;;;;;;2.42;0.77;;;10.00;99.90;;;;;;6272652;22;20007;-71
2023/10/15 09:37:41;;;;;;;1.47;0.43;;;10.10;99.90;;;;;;6272799;22;20016;-71
2023/10/15 09:40:20;;;;;;;5.33;0.80;;;10.20;99.90;;;;;;6272182;22;20026;-71
2023/10/15 09:42:53;;;;;;;2.40;0.40;;;10.30;99.90;;;;;;6273093;22;20436;-71
2023/10/15 09:45:19;;;;;;;2.38;0.50;;;10.30;99.90;;;;;;6245277;22;20083;-71
2023/10/15 09:47:48;;;;;;;1.48;0.30;;;10.40;99.90;;;;;;6272490;22;20079;-72
2023/10/15 09:50:19;;;;;;;2.85;0.40;;;10.30;99.90;;;;;;6272534;22;20414;-72
2023/10/15 09:52:54;;;;;;;4.95;1.20;;;10.40;99.90;;;;;;6245764;22;20000;-72
2023/10/15 09:55:23;;;;;;;3.15;0.50;;;10.50;99.90;;;;;;6271761;22;20141;-72
2023/10/15 09:57:54;;;;;;;3.00;0.35;;;10.60;99.90;;;;;;6245863;22;20010;-72
2023/10/15 10:00:32;;;;;;;3.78;0.75;;;10.70;99.90;;;;;;6272544;22;20360;-72
2023/10/15 10:03:12;;;;;;;2.65;0.60;;;10.80;99.90;;;;;;6245496;22;20257;-72
2023/10/15 10:05:49;;;;;;;1.15;0.30;;;10.80;99.90;;;;;;6272490;22;20011;-72
2023/10/15 10:08:24;;;;;;;6.68;1.05;;;10.70;99.90;;;;;;6272114;22;20128;-72
2023/10/15 10:11:26;;;;;;;4.15;0.60;;;10.60;99.90;;;;;;6272651;22;20004;-72
2023/10/15 10:14:02;;;;;;;3.40;0.65;;;10.60;99.90;;;;;;6119713;23;20421;-72
2023/10/15 10:16:30;;;;;;;0.82;0.20;;;10.50;99.90;;;;;;6119417;23;20013;-72
2023/10/15 10:18:56;;;;;;;3.53;0.70;;;10.40;99.90;;;;;;6119458;23;20012;-72
2023/10/15 10:21:26;;;;;;;4.45;0.77;;;10.40;99.90;;;;;;6119155;23;20009;-72
2023/10/15 10:23:53;;;;;;;2.50;0.68;;;10.30;99.90;;;;;;6118907;23;20089;-72
2023/10/15 10:26:19;;;;;;;4.22;0.55;;;10.30;99.90;;;;;;6118456;23;20015;-73
2023/10/15 10:28:46;;;;;;;1.60;0.38;;;10.30;99.90;;;;;;6119542;23;20483;-72
2023/10/15 10:31:13;;;;;;;5.47;0.60;;;10.20;99.90;;;;;;6119142;23;20002;-72
2023/10/15 10:33:45;;;;;;;3.10;0.70;;;10.20;99.90;;;;;;6119164;23;20066;-72
2023/10/15 10:36:14;;;;;;;3.05;0.50;;;10.20;99.90;;;;;;6094466;23;20006;-72
2023/10/15 10:38:42;;;;;;;2.17;0.63;;;10.20;99.90;;;;;;6118244;23;20466;-72
2023/10/15 10:41:14;;;;;;;1.60;0.47;;;10.30;99.90;;;;;;6119159;23;20420;-72
2023/10/15 10:43:41;;;;;;;2.28;0.40;;;10.40;99.90;;;;;;6118983;23;20077;-72
2023/10/15 10:46:07;;;;;;;2.40;0.60;;;10.30;99.90;;;;;;6119201;23;20010;-72
2023/10/15 10:48:35;;;;;;;1.77;0.60;;;10.30;99.90;;;;;;6119324;23;20029;-72
2023/10/15 10:51:30;;;;;;;1.70;0.40;;;10.30;99.90;;;;;;6206774;22;20386;-72
2023/10/15 10:53:55;;;;;;;1.52;0.35;;;10.30;99.90;;;;;;6271656;22;20012;-71
2023/10/15 10:56:42;;;;;;;3.55;0.52;;;10.20;99.90;;;;;;6272029;22;20027;-72
2023/10/15 10:59:09;;;;;;;2.92;0.50;;;10.20;99.90;;;;;;6245238;22;20086;-71
2023/10/15 11:01:39;;;;;;;2.95;0.50;;;10.20;99.90;;;;;;6272325;22;20006;-71
2023/10/15 11:04:05;;;;;;;1.95;0.38;;;10.20;99.90;;;;;;6272248;22;20000;-72
2023/10/15 11:06:36;;;;;;;3.90;1.00;;;10.20;99.90;;;;;;6244362;22;20003;-72
2023/10/15 11:09:09;;;;;;;6.28;0.57;;;10.20;99.90;;;;;;6272238;22;20086;-72
2023/10/15 11:11:35;;;;;;;1.90;0.40;;;10.20;99.90;;;;;;6271841;22;20007;-72
2023/10/15 11:14:01;;;;;;;4.60;0.32;;;10.30;99.90;;;;;;6272441;22;19999;-72
2023/10/15 11:16:26;;;;;;;2.08;0.57;;;10.40;99.90;;;;;;6272193;22;20079;-72
2023/10/15 11:18:52;;;;;;;3.35;0.50;;;10.50;99.90;;;;;;6271572;22;20003;-72
2023/10/15 11:21:17;;;;;;;1.38;0.77;;;10.60;99.90;;;;;;6270393;22;19999;-72
2023/10/15 11:23:43;;;;;;;3.75;0.73;;;10.70;99.90;;;;;;6272175;22;20007;-71
2023/10/15 11:26:09;;;;;;;1.95;0.43;;;10.70;99.90;;;;;;6271901;22;20082;-73
2023/10/15 11:28:34;;;;;;;3.92;0.50;;;10.80;99.90;;;;;;6272161;22;20079;-74
2023/10/15 11:31:02;;;;;;;4.53;1.02;;;10.80;99.90;;;;;;6271899;22;20000;-73
2023/10/15 11:33:28;;;;;;;4.05;0.77;;;10.90;99.90;;;;;;6271771;22;20003;-74
2023/10/15 11:35:55;;;;;;;4.10;0.60;;;10.90;99.90;;;;;;6271376;22;20083;-70
2023/10/15 11:38:21;;;;;;;2.53;0.50;;;10.90;99.90;;;;;;6271194;22;20437;-70
2023/10/15 11:40:47;;;;;;;3.13;0.70;;;10.90;99.90;;;;;;6271231;22;20067;-72
2023/10/15 11:43:19;;;;;;;4.53;0.70;;;11.00;99.90;;;;;;6271700;22;20042;-70
2023/10/15 11:45:48;;;;;;;4.50;0.60;;;11.10;99.90;;;;;;6271873;22;20079;-71
2023/10/15 11:48:14;;;;;;;1.33;0.50;;;11.20;99.90;;;;;;6271657;22;19995;-71
2023/10/15 11:50:44;;;;;;;6.30;0.60;;;11.40;99.90;;;;;;6271274;22;20003;-71
2023/10/15 11:53:17;;;;;;;4.25;1.08;;;11.50;99.90;;;;;;6271642;22;20019;-70
2023/10/15 11:55:52;;;;;;;6.10;1.23;;;11.60;99.90;;;;;;6271776;22;20008;-70
2023/10/15 11:58:23;;;;;;;9.18;0.63;;;11.60;99.90;;;;;;6244047;22;20008;-70
2023/10/15 12:00:52;;;;;;;2.50;0.50;;;11.60;99.90;;;;;;6272156;22;20003;-70
2023/10/15 12:03:20;;;;;;;2.53;0.45;;;11.60;99.90;;;;;;6271572;22;20082;-70
2023/10/15 12:05:47;;;;;;;4.32;0.60;;;11.60;99.90;;;;;;6271452;22;20004;-70
2023/10/15 12:08:13;;;;;;;4.13;0.68;;;11.60;99.90;;;;;;6244336;22;20004;-70
2023/10/15 12:10:44;;;;;;;1.67;0.60;;;11.60;99.90;;;;;;6271962;22;20006;-70
2023/10/15 12:13:12;;;;;;;1.50;0.50;;;11.60;99.90;;;;;;6271450;22;20074;-70
2023/10/15 12:15:37;;;;;;;3.83;0.47;;;11.50;99.90;;;;;;6272099;22;20035;-70
2023/10/15 12:18:03;;;;;;;2.17;0.73;;;11.50;99.90;;;;;;6271582;22;20011;-70
2023/10/15 12:20:29;;;;;;;1.55;0.40;;;11.40;99.90;;;;;;6271496;22;20010;-71
2023/10/15 12:22:55;;;;;;;1.95;0.40;;;11.30;99.90;;;;;;6270806;22;20004;-70
2023/10/15 12:25:21;;;;;;;2.05;0.50;;;11.30;99.90;;;;;;6271337;22;20007;-71
2023/10/15 12:27:47;;;;;;;5.50;0.50;;;11.20;99.90;;;;;;6271854;22;20466;-70
2023/10/15 12:30:27;;;;;;;4.05;0.40;;;11.10;99.90;;;;;;6271399;22;20071;-70
2023/10/15 12:32:58;;;;;;;2.78;0.40;;;11.10;99.90;;;;;;6271687;22;20007;-70
2023/10/15 12:35:24;;;;;;;4.35;0.60;;;11.00;99.90;;;;;;6270365;22;20004;-70
2023/10/15 12:37:54;;;;;;;3.72;0.30;;;11.00;99.90;;;;;;6271435;22;20082;-70
2023/10/15 12:40:29;;;;;;;3.80;0.63;;;11.00;99.90;;;;;;6271072;22;20452;-70
2023/10/15 12:42:55;;;;;;;2.28;0.80;;;11.00;99.90;;;;;;6273299;22;20330;-70
2023/10/15 12:45:21;;;;;;;3.17;0.55;;;11.00;99.90;;;;;;6272699;22;20011;-70
2023/10/15 12:47:47;;;;;;;3.80;0.60;;;11.00;99.90;;;;;;6273374;22;20000;-70
2023/10/15 12:50:16;;;;;;;4.70;0.70;;;11.00;99.90;;;;;;6272756;22;20039;-70
2023/10/15 12:52:44;;;;;;;3.25;0.60;;;11.00;99.90;;;;;;6271068;22;20329;-70
2023/10/15 12:55:10;;;;;;;1.55;0.45;;;11.00;99.90;;;;;;6270148;22;20000;-70
2023/10/15 12:57:36;;;;;;;2.95;0.30;;;11.10;99.90;;;;;;6270715;22;19999;-70
2023/10/15 13:00:11;;;;;;;2.70;0.30;;;11.10;99.90;;;;;;6244854;22;20015;-70
2023/10/15 13:02:37;;;;;;;1.40;0.32;;;11.20;99.90;;;;;;6272423;22;20325;-70
2023/10/15 13:05:03;;;;;;;3.53;0.40;;;11.30;99.90;;;;;;6272677;22;20380;-70
2023/10/15 13:07:29;;;;;;;3.47;0.40;;;11.40;99.90;;;;;;6273159;22;20130;-70
2023/10/15 13:09:54;;;;;;;3.53;0.38;;;11.50;99.90;;;;;;6273066;22;20023;-70
2023/10/15 13:12:20;;;;;;;3.75;0.70;;;11.60;99.90;;;;;;6272834;22;20004;-70
2023/10/15 13:14:46;;;;;;;2.13;0.50;;;11.80;99.90;;;;;;6273366;22;19996;-70
2023/10/15 13:17:11;;;;;;;3.63;0.60;;;11.90;99.90;;;;;;6272377;22;20073;-71